Time;durP1;ratioP1;P1;durP2;ratioP2;P2;SDS_P1;SDS_P2;PMS_P1;PMS_P2;Temp;Humidity;BMP_temperature;BMP_pressure;BME280_temperature;BME280_humidity;BME280_pressure;Samples;Min_cycle;Max_cycle;Signal;HPM_P1;HPM_P2
2020/12/01 00:01:11;;;;;;;19.32;10.45;;;;;;;0.65;67.31;100518.76;1717861;83;21600;-73
2020/12/01 00:03:40;;;;;;;19.87;11.68;;;;;;;0.61;67.51;100518.83;1717712;83;21167;-73
2020/12/01 00:06:07;;;;;;;18.87;11.18;;;;;;;0.61;67.71;100518.83;1717907;83;21163;-73
2020/12/01 00:08:36;;;;;;;16.05;9.40;;;;;;;0.55;67.93;100517.63;1717863;83;21207;-74
2020/12/01 00:11:05;;;;;;;19.95;11.63;;;;;;;0.56;68.07;100521.95;1717703;83;21132;-73
2020/12/01 00:13:32;;;;;;;22.95;11.63;;;;;;;0.48;68.23;100519.02;1717687;83;21679;-73
2020/12/01 00:15:59;;;;;;;18.80;10.30;;;;;;;0.50;68.35;100526.83;1717724;83;21178;-73
2020/12/01 00:18:26;;;;;;;20.32;11.00;;;;;;;0.47;68.50;100538.57;1717695;83;21179;-73
2020/12/01 00:20:54;;;;;;;20.12;11.00;;;;;;;0.47;68.53;100541.17;1717916;83;21333;-74
2020/12/01 00:23:21;;;;;;;17.35;10.93;;;;;;;0.46;68.60;100536.84;1717889;83;21580;-72
2020/12/01 00:25:48;;;;;;;20.02;10.72;;;;;;;0.48;68.62;100531.19;1717708;83;21321;-73
2020/12/01 00:28:15;;;;;;;19.05;10.55;;;;;;;0.47;68.68;100539.45;1717655;83;21147;-73
2020/12/01 00:30:43;;;;;;;19.02;10.95;;;;;;;0.45;68.84;100541.20;1721099;83;21711;-73
2020/12/01 00:33:11;;;;;;;18.67;11.30;;;;;;;0.46;68.87;100548.13;1723150;83;21303;-73
2020/12/01 00:35:38;;;;;;;18.87;10.93;;;;;;;0.41;69.05;100533.03;1723189;83;21178;-73
2020/12/01 00:38:05;;;;;;;21.93;11.50;;;;;;;0.46;69.07;100537.72;1723273;83;21135;-73
2020/12/01 00:40:32;;;;;;;19.37;11.15;;;;;;;0.43;69.22;100540.36;1723414;83;21623;-74
2020/12/01 00:43:00;;;;;;;20.50;10.72;;;;;;;0.46;69.22;100536.42;1723425;83;21584;-74
2020/12/01 00:45:27;;;;;;;20.55;11.38;;;;;;;0.42;69.42;100533.45;1723422;83;21190;-73
2020/12/01 00:47:54;;;;;;;21.07;11.57;;;;;;;0.43;69.50;100533.84;1723328;83;21361;-73
2020/12/01 00:50:23;;;;;;;19.17;11.10;;;;;;;0.36;69.70;100533.55;1723280;83;21596;-74
2020/12/01 00:52:51;;;;;;;20.50;10.85;;;;;;;0.38;69.88;100530.46;1723240;83;21182;-74
2020/12/01 00:55:19;;;;;;;19.77;11.75;;;;;;;0.34;70.03;100529.25;1723280;83;21155;-74
2020/12/01 00:57:46;;;;;;;20.30;11.48;;;;;;;0.34;70.15;100537.91;1723382;83;21199;-74
2020/12/01 01:00:19;;;;;;;19.52;10.98;;;;;;;0.35;70.28;100534.43;1696997;83;21273;-74
2020/12/01 01:03:00;;;;;;;20.40;11.22;;;;;;;0.41;70.31;100527.83;1779835;79;22990;-73
2020/12/01 01:05:27;;;;;;;18.57;10.70;;;;;;;0.39;70.34;100528.28;1753260;82;21611;-73
2020/12/01 01:07:54;;;;;;;19.62;11.00;;;;;;;0.37;70.35;100526.17;1752964;82;21296;-73
2020/12/01 01:10:26;;;;;;;21.12;11.53;;;;;;;0.38;70.40;100531.77;1753049;81;21357;-73
2020/12/01 01:12:53;;;;;;;18.20;10.85;;;;;;;0.35;70.58;100531.83;1753209;82;21524;-72
2020/12/01 01:15:27;;;;;;;22.17;11.93;;;;;;;0.42;70.45;100529.55;1752883;82;21325;-73
2020/12/01 01:17:56;;;;;;;21.60;12.23;;;;;;;0.40;70.54;100532.61;1753243;82;21175;-73
2020/12/01 01:20:25;;;;;;;20.05;10.88;;;;;;;0.46;70.41;100535.55;1753090;82;21301;-73
2020/12/01 01:22:53;;;;;;;23.05;11.95;;;;;;;0.43;70.46;100533.84;1753139;82;21604;-73
2020/12/01 01:25:21;;;;;;;20.25;10.95;;;;;;;0.44;70.42;100534.27;1752987;81;21306;-73
2020/12/01 01:27:48;;;;;;;19.67;11.60;;;;;;;0.42;70.57;100540.39;1752892;82;21691;-74
2020/12/01 01:30:18;;;;;;;20.43;11.60;;;;;;;0.40;70.55;100540.42;1752851;82;21150;-74
2020/12/01 01:32:45;;;;;;;18.92;11.70;;;;;;;0.36;70.71;100547.86;1752942;81;21183;-73
2020/12/01 01:35:14;;;;;;;22.65;11.57;;;;;;;0.41;70.64;100539.54;1752900;82;21756;-72
2020/12/01 01:37:41;;;;;;;21.95;12.20;;;;;;;0.38;70.74;100545.23;1740807;82;21151;-72
2020/12/01 01:40:20;;;;;;;19.92;12.07;;;;;;;0.40;70.79;100546.92;1723440;83;21182;-73
2020/12/01 01:42:48;;;;;;;20.82;12.33;;;;;;;0.39;70.84;100543.05;1723474;83;21163;-73
2020/12/01 01:45:42;;;;;;;22.82;13.18;;;;;;;0.40;70.82;100543.02;1723155;82;21595;-72
2020/12/01 01:48:24;;;;;;;22.25;12.60;;;;;;;0.40;70.84;100539.12;1723168;83;21128;-72
2020/12/01 01:51:09;;;;;;;20.65;12.30;;;;;;;0.39;70.92;100529.59;1723340;83;21155;-72
2020/12/01 01:53:40;;;;;;;23.60;12.65;;;;;;;0.36;71.02;100524.87;1723026;82;21832;-72
2020/12/01 01:56:09;;;;;;;18.05;11.00;;;;;;;0.34;71.11;100539.20;1723103;83;21476;-72
2020/12/01 01:58:39;;;;;;;22.50;12.05;;;;;;;0.30;71.21;100531.89;1723152;83;21320;-71
2020/12/01 02:01:10;;;;;;;20.62;11.45;;;;;;;0.31;71.28;100532.31;1721763;82;21632;-72
2020/12/01 02:03:46;;;;;;;20.00;11.93;;;;;;;0.30;71.33;100536.24;1710408;84;21294;-72
2020/12/01 02:06:36;;;;;;;21.48;12.07;;;;;;;0.29;71.36;100538.42;1710471;83;21626;-72
2020/12/01 02:09:09;;;;;;;18.75;10.08;;;;;;;0.28;71.34;100537.58;1710368;84;21180;-73
2020/12/01 02:11:37;;;;;;;18.27;11.27;;;;;;;0.29;71.24;100531.91;1710353;84;21152;-72
2020/12/01 02:14:22;;;;;;;15.40;9.95;;;;;;;0.28;71.30;100534.09;1709924;84;21191;-73
2020/12/01 02:16:54;;;;;;;17.95;9.60;;;;;;;0.27;71.30;100532.37;1709878;84;21155;-73
2020/12/01 02:19:29;;;;;;;18.07;10.08;;;;;;;0.23;71.26;100526.80;1710043;84;21156;-73
2020/12/01 02:21:58;;;;;;;17.23;9.63;;;;;;;0.22;71.33;100528.98;1709757;84;21148;-72
2020/12/01 02:24:31;;;;;;;19.37;10.80;;;;;;;0.18;71.44;100535.12;1709781;84;21194;-72
2020/12/01 02:27:00;;;;;;;19.17;10.32;;;;;;;0.17;71.56;100534.27;1709924;83;21318;-71
2020/12/01 02:29:31;;;;;;;16.90;9.88;;;;;;;0.16;71.64;100543.80;1709990;83;21199;-72
2020/12/01 02:31:59;;;;;;;18.73;10.05;;;;;;;0.19;71.65;100555.05;1710037;84;21699;-72
2020/12/01 02:34:37;;;;;;;15.43;9.23;;;;;;;0.16;71.62;100556.80;1709702;84;21341;-72
2020/12/01 02:37:07;;;;;;;15.50;9.00;;;;;;;0.16;71.60;100557.25;1710037;84;21217;-72
2020/12/01 02:39:35;;;;;;;15.40;9.63;;;;;;;0.14;71.45;100563.79;1710017;84;21735;-71
2020/12/01 02:42:07;;;;;;;14.18;8.18;;;;;;;0.14;71.35;100571.59;1709762;84;21342;-71
2020/12/01 02:44:34;;;;;;;14.78;8.70;;;;;;;0.14;71.14;100568.11;1709922;84;21152;-72
2020/12/01 02:47:04;;;;;;;16.97;9.13;;;;;;;0.10;70.97;100571.22;1709788;84;21181;-73
2020/12/01 02:49:33;;;;;;;16.35;8.85;;;;;;;0.09;70.90;100575.13;1709664;84;21187;-73
2020/12/01 02:52:00;;;;;;;17.40;9.50;;;;;;;0.09;70.79;100575.13;1697984;84;21177;-71
2020/12/01 02:54:28;;;;;;;14.83;9.43;;;;;;;0.06;70.78;100572.58;1676033;84;21629;-71
2020/12/01 02:56:57;;;;;;;16.80;9.43;;;;;;;0.07;70.78;100571.25;1685414;84;21123;-72
2020/12/01 02:59:24;;;;;;;18.23;10.08;;;;;;;0.05;70.80;100570.43;1708470;84;21691;-71
2020/12/01 03:01:51;;;;;;;14.55;8.63;;;;;;;0.02;70.85;100565.25;1709336;84;21187;-71
2020/12/01 03:04:18;;;;;;;18.37;9.60;;;;;;;0.02;70.72;100575.66;1713607;84;21204;-71
2020/12/01 03:06:45;;;;;;;19.85;9.45;;;;;;;-0.03;70.68;100574.86;1713781;84;21318;-71
2020/12/01 03:09:15;;;;;;;17.73;9.98;;;;;;;0.01;70.58;100562.67;1713546;84;21631;-71
2020/12/01 03:11:43;;;;;;;14.43;9.60;;;;;;;-0.01;70.54;100557.50;1713801;83;21163;-71
2020/12/01 03:14:11;;;;;;;16.10;9.70;;;;;;;0.02;70.40;100556.60;1713608;84;21333;-71
2020/12/01 03:16:38;;;;;;;17.07;10.35;;;;;;;-0.03;70.46;100568.36;1713678;83;21155;-71
2020/12/01 03:19:06;;;;;;;16.25;9.58;;;;;;;-0.02;70.41;100568.33;1713724;84;21329;-71
2020/12/01 03:21:33;;;;;;;14.80;9.10;;;;;;;-0.05;70.51;100574.89;1713686;84;21188;-72
2020/12/01 03:24:02;;;;;;;19.25;9.33;;;;;;;-0.01;70.43;100577.86;1713663;84;21727;-72
2020/12/01 03:26:29;;;;;;;17.10;9.98;;;;;;;-0.06;70.53;100574.91;1713466;83;21163;-72
2020/12/01 03:28:56;;;;;;;16.75;9.33;;;;;;;-0.03;70.43;100573.10;1713482;84;21242;-72
2020/12/01 03:31:23;;;;;;;15.40;9.48;;;;;;;-0.06;70.51;100573.16;1713501;84;21326;-72
2020/12/01 03:33:51;;;;;;;16.90;10.85;;;;;;;-0.03;70.50;100575.70;1713580;83;21333;-72
2020/12/01 03:36:19;;;;;;;17.12;10.00;;;;;;;-0.05;70.50;100576.19;1713493;84;21195;-72
2020/12/01 03:38:46;;;;;;;15.85;10.05;;;;;;;-0.03;70.45;100562.70;1713577;83;22361;-72
2020/12/01 03:41:14;;;;;;;20.23;9.90;;;;;;;-0.04;70.42;100565.33;1713383;84;21211;-73
2020/12/01 03:43:41;;;;;;;18.12;10.35;;;;;;;-0.07;70.53;100571.89;1713636;84;21302;-72
2020/12/01 03:46:09;;;;;;;15.18;9.58;;;;;;;-0.04;70.49;100584.83;1713588;84;21188;-73
2020/12/01 03:48:37;;;;;;;15.23;9.83;;;;;;;-0.08;70.65;100580.11;1713495;84;21199;-73
2020/12/01 03:51:05;;;;;;;16.67;9.78;;;;;;;-0.05;70.55;100575.30;1713597;84;21323;-73
2020/12/01 03:53:32;;;;;;;17.07;9.95;;;;;;;-0.09;70.66;100577.53;1713441;83;21203;-72
2020/12/01 03:55:59;;;;;;;15.58;9.40;;;;;;;-0.06;70.65;100577.52;1713630;84;21695;-73
2020/12/01 03:58:27;;;;;;;18.65;10.65;;;;;;;-0.12;70.75;100574.98;1713389;84;21206;-73
2020/12/01 04:00:54;;;;;;;19.52;10.08;;;;;;;-0.11;70.70;100574.11;1713608;83;21322;-73
2020/12/01 04:03:21;;;;;;;19.05;10.30;;;;;;;-0.19;70.80;100573.77;1713549;84;22015;-73
2020/12/01 04:05:48;;;;;;;17.25;9.15;;;;;;;-0.20;70.87;100570.73;1713525;84;21195;-72
2020/12/01 04:08:16;;;;;;;18.82;10.53;;;;;;;-0.26;71.03;100562.16;1713506;84;21289;-72
2020/12/01 04:10:43;;;;;;;16.37;9.85;;;;;;;-0.29;71.16;100561.77;1713516;84;21159;-72
2020/12/01 04:13:10;;;;;;;18.57;10.98;;;;;;;-0.34;71.33;100564.86;1713505;83;21187;-72
2020/12/01 04:15:37;;;;;;;18.25;10.05;;;;;;;-0.34;71.40;100561.81;1713540;84;21632;-72
2020/12/01 04:18:05;;;;;;;21.57;11.43;;;;;;;-0.35;71.46;100552.73;1713462;84;21316;-73
2020/12/01 04:20:32;;;;;;;17.10;10.82;;;;;;;-0.38;71.50;100559.28;1713410;84;21215;-73
2020/12/01 04:23:00;;;;;;;21.95;12.30;;;;;;;-0.39;71.64;100553.66;1713357;84;21301;-73
2020/12/01 04:25:27;;;;;;;23.70;13.43;;;;;;;-0.42;71.71;100559.75;1713467;84;21191;-73
2020/12/01 04:27:56;;;;;;;24.95;14.60;;;;;;;-0.42;71.78;100562.77;1713545;84;21195;-73
2020/12/01 04:30:25;;;;;;;28.67;16.30;;;;;;;-0.44;71.95;100567.15;1713391;84;21144;-72
2020/12/01 04:32:52;;;;;;;30.70;17.32;;;;;;;-0.40;71.94;100567.53;1713453;83;21175;-73
2020/12/01 04:35:24;;;;;;;30.50;17.40;;;;;;;-0.44;72.01;100567.15;1713546;84;21191;-72
2020/12/01 04:37:54;;;;;;;30.55;16.25;;;;;;;-0.39;71.96;100567.95;1713727;83;21199;-73
2020/12/01 04:40:25;;;;;;;29.27;16.20;;;;;;;-0.44;72.10;100558.90;1713626;84;21195;-73
2020/12/01 04:43:00;;;;;;;27.02;15.38;;;;;;;-0.43;72.09;100555.43;1685885;84;21191;-73
2020/12/01 04:45:27;;;;;;;26.25;14.58;;;;;;;-0.47;72.21;100560.67;1713491;84;21187;-73
2020/12/01 04:48:02;;;;;;;26.65;14.30;;;;;;;-0.48;72.25;100560.27;1713622;83;21664;-72
2020/12/01 04:50:39;;;;;;;24.12;14.80;;;;;;;-0.55;72.37;100557.74;1713789;84;21195;-73
2020/12/01 04:53:44;;;;;;;25.65;14.03;;;;;;;-0.54;72.38;100558.17;1686001;84;21342;-73
2020/12/01 04:56:36;;;;;;;;;;;;;;;-0.59;72.52;100553.89;1716377;84;21183;-72
2020/12/01 04:59:25;;;;;;;21.48;13.38;;;;;;;-0.58;72.58;100569.45;1713480;84;20133;-73
2020/12/01 05:02:31;;;;;;;23.35;13.50;;;;;;;-0.68;72.74;100575.63;1713276;84;21168;-73
2020/12/01 05:05:33;;;;;;;22.75;12.82;;;;;;;-0.67;72.84;100581.25;1658233;86;21167;-71
2020/12/01 05:08:35;;;;;;;21.05;12.28;;;;;;;-0.68;72.92;100586.90;1669784;86;22184;-71
2020/12/01 05:11:16;;;;;;;22.90;13.40;;;;;;;-0.71;73.12;100586.06;1669735;85;21217;-72
2020/12/01 05:13:45;;;;;;;27.15;15.68;;;;;;;-0.70;73.19;100582.59;1669517;85;21248;-72
2020/12/01 05:16:48;;;;;;;22.05;13.55;;;;;;;-0.70;73.27;100585.20;1672868;86;21838;-71
2020/12/01 05:19:45;;;;;;;30.48;16.75;;;;;;;-0.69;73.34;100587.77;1669861;86;21632;-72
2020/12/01 05:22:15;;;;;;;24.15;14.93;;;;;;;-0.71;73.50;100581.72;1669976;86;21381;-72
2020/12/01 05:24:49;;;;;;;27.50;15.45;;;;;;;-0.75;73.75;100579.19;1671134;86;21629;-72
2020/12/01 05:27:33;;;;;;;25.77;15.45;;;;;;;-0.75;73.86;100577.89;1671216;86;21232;-73
2020/12/01 05:30:21;;;;;;;27.75;16.57;;;;;;;-0.78;74.06;100582.68;1657650;85;21168;-71
2020/12/01 05:33:06;;;;;;;26.75;15.32;;;;;;;-0.76;74.08;100589.15;1670625;86;21594;-71
2020/12/01 05:35:35;;;;;;;28.07;16.82;;;;;;;-0.76;74.17;100589.15;1656633;85;21169;-71
2020/12/01 05:38:20;;;;;;;27.40;15.50;;;;;;;-0.72;74.16;100588.23;1670379;84;21226;-71
2020/12/01 05:40:50;;;;;;;27.00;16.05;;;;;;;-0.75;74.21;100590.88;1670619;85;21197;-71
2020/12/01 05:43:36;;;;;;;26.57;14.13;;;;;;;-0.74;74.45;100579.58;1667664;85;21173;-71
2020/12/01 05:46:28;;;;;;;26.30;15.08;;;;;;;-0.78;74.42;100581.80;1661856;86;21177;-72
2020/12/01 05:49:04;;;;;;;27.32;16.32;;;;;;;-0.76;74.44;100586.10;1669661;85;21731;-72
2020/12/01 05:51:46;;;;;;;29.00;18.05;;;;;;;-0.79;74.59;100585.27;1666469;85;21162;-72
2020/12/01 05:54:25;;;;;;;29.82;18.65;;;;;;;-0.73;74.49;100585.20;1667957;86;21188;-72
2020/12/01 05:56:53;;;;;;;31.25;18.55;;;;;;;-0.76;74.53;100583.50;1668472;86;22209;-73
2020/12/01 05:59:24;;;;;;;34.40;22.02;;;;;;;-0.68;74.45;100584.72;1671670;85;21435;-73
2020/12/01 06:01:56;;;;;;;33.23;18.25;;;;;;;-0.71;74.55;100591.27;1670940;86;21253;-73
2020/12/01 06:04:25;;;;;;;31.57;18.87;;;;;;;-0.66;74.45;100592.07;1684941;84;21193;-74
2020/12/01 06:07:16;;;;;;;32.00;19.73;;;;;;;-0.66;74.47;100605.06;1668189;86;21383;-73
2020/12/01 06:10:16;;;;;;;26.73;15.08;;;;;;;-0.60;74.43;100593.31;1668038;86;21169;-73
2020/12/01 06:13:04;;;;;;;28.15;16.37;;;;;;;-0.60;74.44;100597.20;1639680;87;21173;-73
2020/12/01 06:15:31;;;;;;;29.18;16.25;;;;;;;-0.57;74.39;100597.61;1668190;86;21206;-73
2020/12/01 06:18:19;;;;;;;24.90;14.83;;;;;;;-0.55;74.44;100586.74;1655290;86;21339;-73
2020/12/01 06:21:03;;;;;;;26.70;15.75;;;;;;;-0.54;74.37;100584.16;1662790;86;22275;-73
2020/12/01 06:23:51;;;;;;;30.43;15.72;;;;;;;-0.52;74.46;100591.92;1713305;84;21183;-75
2020/12/01 06:26:54;;;;;;;28.67;15.13;;;;;;;-0.55;74.57;100591.52;1695863;84;21127;-73
2020/12/01 06:30:01;;;;;;;24.10;14.45;;;;;;;-0.48;74.56;100592.30;1712524;84;21203;-73
2020/12/01 06:33:03;;;;;;;26.57;14.70;;;;;;;-0.47;74.56;100609.63;1701566;83;21249;-74
2020/12/01 06:36:14;;;;;;;24.47;13.88;;;;;;;-0.42;74.46;100596.56;1684700;85;21596;-73
2020/12/01 06:39:16;;;;;;;24.47;13.50;;;;;;;-0.40;74.62;100597.41;1703620;84;21170;-74
2020/12/01 06:41:57;;;;;;;20.32;11.75;;;;;;;-0.39;74.61;100613.44;1682074;84;21646;-73
2020/12/01 06:44:26;;;;;;;21.50;12.78;;;;;;;-0.35;74.59;100608.62;1658541;85;21597;-73
2020/12/01 06:46:56;;;;;;;22.45;12.95;;;;;;;-0.36;74.61;100599.09;1696083;84;21169;-73
2020/12/01 06:49:27;;;;;;;20.40;11.68;;;;;;;-0.28;74.24;100600.30;1684480;85;21286;-73
2020/12/01 06:52:01;;;;;;;18.67;11.35;;;;;;;-0.30;74.31;100605.52;1681517;84;21173;-73
2020/12/01 06:54:29;;;;;;;19.05;10.85;;;;;;;-0.25;73.98;100615.42;1680100;84;21163;-73
2020/12/01 06:57:02;;;;;;;21.00;12.10;;;;;;;-0.23;73.84;100611.08;1685256;84;21766;-73
2020/12/01 06:59:29;;;;;;;20.03;11.37;;;;;;;-0.21;73.89;100621.00;1713336;84;21572;-73
2020/12/01 07:02:20;;;;;;;18.80;11.00;;;;;;;-0.19;73.79;100610.61;1682847;84;21670;-73
2020/12/01 07:04:48;;;;;;;22.30;11.08;;;;;;;-0.12;73.60;100615.29;1679186;84;21804;-73
2020/12/01 07:07:30;;;;;;;21.25;11.53;;;;;;;-0.08;73.62;100613.91;1703526;84;21176;-73
2020/12/01 07:09:58;;;;;;;19.02;11.60;;;;;;;-0.05;73.59;100616.49;1688784;84;21224;-73
2020/12/01 07:12:51;;;;;;;16.73;11.00;;;;;;;-0.02;73.48;100625.99;1667033;86;21660;-74
2020/12/01 07:15:39;;;;;;;21.68;11.60;;;;;;;0.00;73.34;100619.05;1709655;84;21163;-73
2020/12/01 07:18:27;;;;;;;19.82;11.73;;;;;;;0.04;73.24;100628.95;1689462;84;21138;-74
2020/12/01 07:21:17;;;;;;;22.75;12.80;;;;;;;-0.01;73.19;100628.57;1666606;85;21137;-74
2020/12/01 07:24:07;;;;;;;22.98;13.28;;;;;;;0.05;73.05;100625.05;1681109;84;21152;-74
2020/12/01 07:27:09;;;;;;;22.17;12.50;;;;;;;0.02;73.01;100628.97;1670313;84;21620;-73
2020/12/01 07:30:13;;;;;;;27.87;13.30;;;;;;;0.09;72.73;100631.92;1699195;82;21634;-75
2020/12/01 07:32:48;;;;;;;;;;;;;;;0.12;72.67;100619.31;1734095;82;21162;-74
2020/12/01 07:35:41;;;;;;;22.65;12.68;;;;;;;0.09;72.70;100622.82;1718104;82;20278;-74
2020/12/01 07:38:33;;;;;;;25.95;13.25;;;;;;;0.08;72.93;100621.55;1699838;82;21139;-74
2020/12/01 07:41:25;;;;;;;27.02;13.78;;;;;;;0.02;73.22;100615.97;1677265;84;21746;-73
2020/12/01 07:44:25;;;;;;;23.80;12.58;;;;;;;0.08;72.97;100632.80;1712340;82;21154;-74
2020/12/01 07:47:06;;;;;;;26.15;13.40;;;;;;;0.08;72.92;100617.19;1783562;80;21289;-74
2020/12/01 07:49:34;;;;;;;26.60;13.72;;;;;;;0.09;72.90;100621.52;1778548;80;21550;-74
2020/12/01 07:52:12;;;;;;;27.27;13.65;;;;;;;0.06;72.94;100614.19;1784361;79;21143;-74
2020/12/01 07:54:40;;;;;;;23.32;11.85;;;;;;;0.03;72.72;100615.09;1785652;79;21305;-73
2020/12/01 07:57:16;;;;;;;25.90;13.55;;;;;;;0.09;72.63;100616.31;1797940;79;21629;-74
2020/12/01 07:59:46;;;;;;;19.75;11.85;;;;;;;0.08;72.50;100617.19;1785535;79;21123;-74
2020/12/01 08:02:15;;;;;;;20.48;11.25;;;;;;;0.11;72.55;100609.34;1783191;80;21166;-74
2020/12/01 08:04:42;;;;;;;20.27;11.08;;;;;;;0.09;72.64;100607.63;1782651;79;22255;-73
2020/12/01 08:07:15;;;;;;;14.93;9.23;;;;;;;0.08;72.75;100610.69;1783198;80;21170;-74
2020/12/01 08:09:43;;;;;;;17.20;10.53;;;;;;;0.05;72.35;100610.74;1781470;79;21312;-75
2020/12/01 08:12:14;;;;;;;16.37;10.58;;;;;;;0.05;72.40;100609.45;1736476;80;21786;-75
2020/12/01 08:14:51;;;;;;;18.07;10.25;;;;;;;0.04;72.59;100620.72;1781226;79;21137;-74
2020/12/01 08:17:27;;;;;;;16.93;10.78;;;;;;;0.09;72.60;100624.12;1775113;79;21190;-75
2020/12/01 08:19:54;;;;;;;19.32;10.82;;;;;;;0.06;72.50;100623.30;1775752;79;21824;-75
2020/12/01 08:22:30;;;;;;;18.82;10.30;;;;;;;0.12;72.41;100611.52;1782980;79;21180;-75
2020/12/01 08:25:01;;;;;;;18.57;11.18;;;;;;;0.15;72.37;100614.94;1771377;79;21269;-76
2020/12/01 08:27:53;;;;;;;16.35;10.90;;;;;;;0.20;72.38;100617.91;1794620;79;21984;-76
2020/12/01 08:30:29;;;;;;;16.23;9.53;;;;;;;0.22;72.20;100609.20;1774874;80;21693;-73
2020/12/01 08:33:01;;;;;;;14.93;9.33;;;;;;;0.27;71.94;100615.63;1783964;79;21146;-75
2020/12/01 08:35:46;;;;;;;17.73;11.60;;;;;;;0.31;72.14;100622.53;1785763;79;21154;-74
2020/12/01 08:38:32;;;;;;;;;;;;;;;0.31;71.99;100622.53;1790401;79;21649;-72
2020/12/01 08:41:30;;;;;;;18.32;10.63;;;;;;;0.34;71.96;100617.27;1790544;79;20184;-73
2020/12/01 08:44:19;;;;;;;18.32;9.75;;;;;;;0.21;71.65;100614.44;1798801;79;21295;-72
2020/12/01 08:46:47;;;;;;;14.80;8.80;;;;;;;0.22;71.61;100621.33;1780732;79;21257;-74
2020/12/01 08:49:23;;;;;;;15.15;9.53;;;;;;;0.19;71.66;100617.48;1789208;79;21265;-74
2020/12/01 08:52:00;;;;;;;14.95;9.65;;;;;;;0.23;71.37;100609.63;1764615;79;21149;-73
2020/12/01 08:54:33;;;;;;;14.47;9.15;;;;;;;0.25;71.44;100609.15;1776376;79;21172;-73
2020/12/01 08:57:16;;;;;;;14.55;9.28;;;;;;;0.24;71.16;100612.63;1780936;79;21203;-73
2020/12/01 08:59:55;;;;;;;13.90;9.30;;;;;;;0.28;71.20;100614.75;1787020;79;21246;-74
2020/12/01 09:02:22;;;;;;;15.30;9.30;;;;;;;0.27;71.45;100596.11;1778748;79;21158;-74
2020/12/01 09:04:59;;;;;;;13.70;9.15;;;;;;;0.30;71.17;100590.88;1756828;79;21560;-74
2020/12/01 09:07:30;;;;;;;14.03;8.53;;;;;;;0.31;70.74;100601.26;1777439;79;21106;-74
2020/12/01 09:10:24;;;;;;;12.65;9.28;;;;;;;0.32;70.45;100599.54;1778675;80;21162;-73
2020/12/01 09:23:35;;;;;;;14.63;9.15;;;;;;;0.64;70.13;100577.36;1738817;81;21159;-71
2020/12/01 09:26:20;;;;;;;12.82;9.00;;;;;;;0.60;70.04;100576.97;1720187;82;21174;-72
2020/12/01 09:28:49;;;;;;;15.23;9.10;;;;;;;0.48;69.99;100585.39;1676241;85;21214;-72
2020/12/01 09:31:17;;;;;;;14.05;9.18;;;;;;;0.52;70.27;100577.55;1664825;83;21675;-71
2020/12/01 09:33:44;;;;;;;13.35;7.80;;;;;;;0.48;70.42;100580.19;1656925;85;21166;-72
2020/12/01 09:36:20;;;;;;;14.03;8.18;;;;;;;0.48;70.06;100576.28;1654494;85;21162;-73
2020/12/01 09:38:47;;;;;;;15.53;9.10;;;;;;;0.47;69.98;100568.08;1677592;83;21223;-72
2020/12/01 09:41:16;;;;;;;15.38;8.98;;;;;;;0.49;70.14;100566.75;1682533;84;21641;-73
2020/12/01 09:43:49;;;;;;;13.68;8.35;;;;;;;0.47;69.99;100571.98;1671179;85;21150;-73
2020/12/01 09:48:21;;;;;;;11.83;7.15;;;;;;;0.54;70.22;100573.16;1789308;79;22881;-72
2020/12/01 09:50:42;;;;;;;11.38;7.28;;;;;;;0.50;69.41;100571.08;1751746;80;22278;-72
2020/12/01 10:36:25;;;;;;;12.55;7.58;;;;;;;0.21;72.13;100559.34;1706498;84;21174;-72
2020/12/01 10:38:53;;;;;;;10.63;6.17;;;;;;;0.05;72.30;100523.61;1712903;83;21145;-72
2020/12/01 10:41:31;;;;;;;11.18;6.75;;;;;;;0.22;72.19;100538.08;1706063;83;21316;-72
2020/12/01 10:44:00;;;;;;;13.05;7.28;;;;;;;0.16;72.26;100547.70;1709377;83;21205;-73
2020/12/01 10:46:28;;;;;;;11.40;7.12;;;;;;;0.23;72.17;100544.59;1706847;83;21576;-72
2020/12/01 10:48:55;;;;;;;10.63;7.20;;;;;;;0.24;72.53;100550.64;1712271;83;21281;-71
2020/12/01 10:51:22;;;;;;;12.70;7.33;;;;;;;0.27;72.33;100547.98;1701812;83;21197;-72
2020/12/01 10:53:49;;;;;;;12.73;7.75;;;;;;;0.28;72.11;100540.59;1703653;83;21703;-72
2020/12/01 10:56:17;;;;;;;17.57;7.50;;;;;;;0.28;72.29;100544.50;1728593;81;21317;-72
2020/12/01 10:58:45;;;;;;;11.53;7.37;;;;;;;0.32;72.38;100535.79;1726208;82;21194;-71
2020/12/01 11:01:13;;;;;;;14.15;7.12;;;;;;;0.31;72.07;100532.77;1718914;81;21150;-80
2020/12/01 11:03:41;;;;;;;12.78;7.85;;;;;;;0.35;72.28;100539.63;1729293;83;21175;-72
2020/12/01 11:06:08;;;;;;;12.47;7.05;;;;;;;0.34;72.21;100533.16;1716404;82;21298;-73
2020/12/01 11:08:35;;;;;;;15.32;7.58;;;;;;;0.35;72.15;100536.19;1732181;82;21215;-73
2020/12/01 11:11:04;;;;;;;15.23;7.78;;;;;;;0.31;72.48;100530.16;1785072;80;21170;-72
2020/12/01 11:13:31;;;;;;;13.38;8.08;;;;;;;0.38;72.62;100535.67;1743382;81;21168;-72
2020/12/01 11:15:59;;;;;;;15.55;8.98;;;;;;;0.35;72.55;100534.43;1762336;80;21302;-72
2020/12/01 11:18:26;;;;;;;14.47;8.63;;;;;;;0.42;72.69;100530.86;1753483;80;21628;-72
2020/12/01 11:20:54;;;;;;;14.10;8.10;;;;;;;0.42;72.60;100533.45;1701549;84;21307;-72
2020/12/01 11:23:21;;;;;;;11.85;7.15;;;;;;;0.42;72.50;100530.86;1770417;80;21312;-72
2020/12/01 11:25:48;;;;;;;13.60;8.10;;;;;;;0.39;72.23;100524.38;1702233;83;21607;-72
2020/12/01 11:28:16;;;;;;;13.43;7.65;;;;;;;0.39;72.35;100529.59;1701604;83;21187;-71
2020/12/01 11:30:43;;;;;;;13.32;8.18;;;;;;;0.41;72.55;100523.92;1744196;80;21330;-72
2020/12/01 11:33:10;;;;;;;12.40;7.12;;;;;;;0.41;72.60;100524.35;1742880;80;21176;-71
2020/12/01 11:35:37;;;;;;;15.83;8.50;;;;;;;0.42;72.71;100520.45;1740801;80;21719;-72
2020/12/01 11:38:04;;;;;;;13.35;8.18;;;;;;;0.43;72.82;100516.94;1741063;82;21162;-72
2020/12/01 11:40:31;;;;;;;12.58;8.15;;;;;;;0.42;72.70;100522.17;1750061;80;21162;-71
2020/12/01 11:42:59;;;;;;;12.05;8.00;;;;;;;0.43;72.70;100520.84;1758094;81;21190;-71
2020/12/01 11:45:26;;;;;;;14.10;7.70;;;;;;;0.42;72.91;100522.17;1747557;80;21310;-71
2020/12/01 11:47:53;;;;;;;14.38;7.72;;;;;;;0.41;72.98;100516.54;1743073;80;21646;-72
2020/12/01 11:50:20;;;;;;;13.18;7.50;;;;;;;0.37;73.17;100519.66;1683822;83;21344;-82
2020/12/01 11:52:48;;;;;;;12.73;8.18;;;;;;;0.35;73.37;100520.12;1688327;84;21178;-73
2020/12/01 11:55:17;;;;;;;10.58;6.72;;;;;;;0.39;73.66;100513.97;1742908;81;21347;-72
2020/12/01 11:57:44;;;;;;;10.43;6.67;;;;;;;0.38;73.52;100523.95;1751244;80;21775;-72
2020/12/01 12:00:19;;;;;;;11.30;7.17;;;;;;;0.36;73.38;100516.64;1744000;81;21619;-72
2020/12/01 12:02:46;;;;;;;10.60;7.37;;;;;;;0.33;73.61;100514.06;1731049;80;21342;-72
2020/12/01 12:05:13;;;;;;;11.68;7.87;;;;;;;0.31;73.60;100511.95;1755143;80;21250;-72
2020/12/01 12:07:40;;;;;;;12.68;7.87;;;;;;;0.20;74.02;100515.16;1748718;80;21648;-71
2020/12/01 12:10:10;;;;;;;14.28;7.80;;;;;;;0.25;74.02;100513.34;1753385;80;21112;-72
2020/12/01 12:12:37;;;;;;;13.10;7.50;;;;;;;0.27;74.31;100506.34;1754226;80;21163;-72
2020/12/01 12:15:05;;;;;;;12.50;7.90;;;;;;;0.26;74.28;100504.66;1748614;82;21718;-71
2020/12/01 12:17:32;;;;;;;14.63;8.10;;;;;;;0.25;74.34;100510.28;1751184;80;21314;-72
2020/12/01 12:20:02;;;;;;;13.30;7.62;;;;;;;0.25;74.23;100514.64;1698602;83;21108;-73
2020/12/01 12:22:29;;;;;;;18.87;8.55;;;;;;;0.23;74.24;100514.67;1693044;83;21262;-78
2020/12/01 12:24:56;;;;;;;11.93;7.60;;;;;;;0.21;74.20;100509.92;1721059;82;21655;-78
2020/12/01 12:27:24;;;;;;;12.50;7.92;;;;;;;0.30;74.14;100514.13;1722422;82;21303;-75
2020/12/01 12:29:51;;;;;;;11.45;7.55;;;;;;;0.36;73.89;100525.75;1716540;82;21321;-75
2020/12/01 12:32:18;;;;;;;13.90;8.20;;;;;;;0.36;73.81;100530.95;1756817;80;21159;-86
2020/12/01 12:34:46;;;;;;;13.55;7.87;;;;;;;0.38;73.89;100529.16;1754027;80;21175;-85
2020/12/01 12:37:13;;;;;;;13.05;7.85;;;;;;;0.43;73.94;100526.50;1757001;80;21285;-89
2020/12/01 12:39:41;;;;;;;13.70;7.83;;;;;;;0.41;73.94;100521.75;1756194;80;21221;-83
2020/12/01 12:42:09;;;;;;;14.83;8.00;;;;;;;0.40;74.12;100530.02;1753682;80;21170;-83
2020/12/01 12:44:36;;;;;;;15.43;8.03;;;;;;;0.37;73.95;100528.77;1751259;80;21321;-86